Time;durP1;ratioP1;P1;durP2;ratioP2;P2;SDS_P1;SDS_P2;PMS_P1;PMS_P2;Temp;Humidity;BMP_temperature;BMP_pressure;BME280_temperature;BME280_humidity;BME280_pressure;Samples;Min_cycle;Max_cycle;Signal;HPM_P1;HPM_P2
2021/05/04 00:02:16;;;;;;;10.83;7.07;;;;;;;5.41;76.88;100400.53;1649191;85;25858;-76
2021/05/04 00:04:41;;;;;;;13.33;7.87;;;;;;;5.36;76.87;100397.50;1647579;86;25721;-76
2021/05/04 00:07:07;;;;;;;14.83;7.73;;;;;;;5.34;76.90;100387.26;1648140;85;25423;-76
2021/05/04 00:09:33;;;;;;;13.10;7.23;;;;;;;5.32;76.89;100385.30;1648364;86;25882;-76
2021/05/04 00:11:59;;;;;;;11.17;6.90;;;;;;;5.34;76.92;100385.48;1648260;85;25925;-76
2021/05/04 00:14:25;;;;;;;12.93;7.53;;;;;;;5.31;76.86;100385.74;1648529;85;25782;-76
2021/05/04 00:16:51;;;;;;;14.75;7.53;;;;;;;5.32;76.84;100381.41;1648628;86;25734;-77
2021/05/04 00:19:16;;;;;;;13.23;7.10;;;;;;;5.28;76.78;100379.53;1648035;85;25815;-77
2021/05/04 00:21:42;;;;;;;11.17;6.70;;;;;;;5.27;76.81;100376.61;1648469;86;26463;-77
2021/05/04 00:24:08;;;;;;;16.17;6.73;;;;;;;5.28;76.82;100376.13;1648444;85;25806;-77
2021/05/04 00:26:34;;;;;;;12.28;6.50;;;;;;;5.28;76.75;100380.01;1648557;86;25361;-76
2021/05/04 00:29:00;;;;;;;12.73;7.43;;;;;;;5.25;76.77;100376.39;1648636;85;25848;-77
2021/05/04 00:31:26;;;;;;;11.43;7.00;;;;;;;5.25;76.72;100381.57;1648327;85;25758;-77
2021/05/04 00:33:53;;;;;;;11.60;7.60;;;;;;;5.22;76.69;100376.66;1649217;85;25869;-77
2021/05/04 00:36:20;;;;;;;15.08;7.50;;;;;;;5.19;76.77;100373.84;1648205;85;25757;-77
2021/05/04 00:38:46;;;;;;;10.58;6.67;;;;;;;5.17;76.75;100367.15;1648313;85;25938;-77
2021/05/04 00:41:12;;;;;;;13.70;6.40;;;;;;;5.15;76.79;100365.97;1649072;85;25418;-77
2021/05/04 00:43:38;;;;;;;11.87;6.37;;;;;;;5.14;76.79;100364.82;1651614;85;25986;-77
2021/05/04 00:46:03;;;;;;;16.07;6.90;;;;;;;5.11;76.84;100360.23;1648628;85;25891;-77
2021/05/04 00:48:30;;;;;;;12.77;6.90;;;;;;;5.14;76.87;100360.94;1648062;85;25912;-77
2021/05/04 00:50:58;;;;;;;12.40;6.45;;;;;;;5.15;76.87;100356.09;1648532;85;25909;-77
2021/05/04 00:53:24;;;;;;;10.55;6.12;;;;;;;5.15;76.84;100356.09;1647262;86;26535;-77
2021/05/04 00:55:51;;;;;;;12.43;6.70;;;;;;;5.16;76.85;100353.86;1647832;85;25799;-76
2021/05/04 00:58:17;;;;;;;10.05;6.65;;;;;;;5.11;76.78;100348.58;1648055;86;25806;-77
2021/05/04 01:00:44;;;;;;;12.77;6.73;;;;;;;5.11;76.83;100347.28;1648508;86;26269;-77
2021/05/04 01:03:10;;;;;;;15.58;6.83;;;;;;;5.12;76.79;100346.32;1648721;86;25838;-77
2021/05/04 01:05:38;;;;;;;12.82;6.97;;;;;;;5.09;76.77;100348.36;1648394;85;25817;-77
2021/05/04 01:08:04;;;;;;;10.72;5.80;;;;;;;5.08;76.78;100345.44;1648278;85;25983;-77
2021/05/04 01:10:30;;;;;;;11.33;6.55;;;;;;;5.08;76.83;100347.55;1647812;85;25722;-77
2021/05/04 01:12:56;;;;;;;9.87;5.63;;;;;;;5.08;76.81;100351.91;1649331;85;27349;-77
2021/05/04 01:15:22;;;;;;;11.20;6.37;;;;;;;5.07;76.79;100355.44;1648209;85;25334;-77
2021/05/04 01:17:49;;;;;;;12.65;6.92;;;;;;;5.05;76.80;100349.59;1648469;85;25961;-77
2021/05/04 01:20:15;;;;;;;13.25;6.90;;;;;;;5.01;76.78;100356.77;1649471;85;25888;-76
2021/05/04 01:22:41;;;;;;;11.85;6.85;;;;;;;4.98;76.77;100358.33;1647435;85;25495;-77
2021/05/04 01:25:08;;;;;;;14.97;8.00;;;;;;;4.87;76.79;100353.23;1648251;85;26276;-77
2021/05/04 01:27:34;;;;;;;16.02;7.78;;;;;;;4.80;77.03;100355.98;1648667;85;25869;-76
2021/05/04 01:30:00;;;;;;;10.67;6.20;;;;;;;4.71;77.07;100352.39;1648790;86;25789;-77
2021/05/04 01:32:27;;;;;;;11.48;7.08;;;;;;;4.65;77.58;100355.02;1648311;86;25725;-77
2021/05/04 01:34:53;;;;;;;13.60;7.37;;;;;;;4.56;77.42;100354.48;1648296;86;25883;-76
2021/05/04 01:37:19;;;;;;;12.03;6.77;;;;;;;4.50;77.57;100360.17;1648111;86;27662;-77
2021/05/04 01:39:48;;;;;;;12.00;6.97;;;;;;;4.44;78.15;100361.47;1648261;86;26505;-76
2021/05/04 01:42:16;;;;;;;13.93;7.67;;;;;;;4.38;78.29;100363.27;1648530;86;25824;-77
2021/05/04 01:44:43;;;;;;;15.48;7.42;;;;;;;4.34;78.62;100365.78;1647526;85;25695;-76
2021/05/04 01:47:10;;;;;;;16.07;8.28;;;;;;;4.31;78.63;100359.56;1647626;85;26746;-77
2021/05/04 01:49:36;;;;;;;13.00;7.37;;;;;;;4.30;78.45;100348.03;1648604;85;25769;-76
2021/05/04 01:52:06;;;;;;;12.95;7.72;;;;;;;4.29;78.64;100342.05;1648455;86;25378;-77
2021/05/04 01:54:32;;;;;;;13.08;7.40;;;;;;;4.29;78.45;100334.28;1648075;85;33769;-76
2021/05/04 01:56:59;;;;;;;15.20;8.07;;;;;;;4.31;78.31;100336.28;1647651;85;25789;-76
2021/05/04 01:59:27;;;;;;;12.15;7.08;;;;;;;4.33;78.29;100333.55;1648138;85;25568;-76
2021/05/04 02:01:54;;;;;;;12.55;7.22;;;;;;;4.33;78.29;100328.37;1648086;85;25804;-76
2021/05/04 02:04:20;;;;;;;11.85;7.10;;;;;;;4.31;78.23;100322.05;1648472;85;25757;-77
2021/05/04 02:06:47;;;;;;;14.47;7.80;;;;;;;4.32;78.21;100318.98;1648502;85;26555;-77
2021/05/04 02:09:14;;;;;;;12.90;7.40;;;;;;;4.35;78.17;100309.67;1648606;85;25773;-77
2021/05/04 02:11:40;;;;;;;17.92;7.85;;;;;;;4.37;78.00;100312.96;1648057;86;25764;-77
2021/05/04 02:14:06;;;;;;;11.63;7.27;;;;;;;4.37;77.97;100317.66;1648281;85;25885;-76
2021/05/04 02:16:33;;;;;;;12.05;7.60;;;;;;;4.36;77.85;100322.46;1648865;85;25365;-76
2021/05/04 02:19:00;;;;;;;13.28;7.10;;;;;;;4.31;77.81;100314.28;1648165;86;25798;-77
2021/05/04 02:21:26;;;;;;;15.93;8.30;;;;;;;4.31;77.89;100319.46;1649024;85;25730;-76
2021/05/04 02:23:52;;;;;;;10.70;6.83;;;;;;;4.27;77.79;100325.00;1648469;85;25867;-76
2021/05/04 02:26:18;;;;;;;12.00;7.28;;;;;;;4.27;77.89;100319.83;1648544;85;26634;-76
2021/05/04 02:28:45;;;;;;;12.20;7.30;;;;;;;4.23;77.79;100314.91;1648502;85;25353;-77
2021/05/04 02:31:13;;;;;;;11.80;7.17;;;;;;;4.23;77.82;100317.50;1648363;86;25852;-76
2021/05/04 02:33:41;;;;;;;12.85;7.53;;;;;;;4.22;77.88;100316.31;1647783;85;26223;-76
2021/05/04 02:36:08;;;;;;;12.25;6.78;;;;;;;4.17;78.00;100316.71;1648082;85;25714;-76
2021/05/04 02:38:34;;;;;;;12.85;7.90;;;;;;;4.11;78.12;100321.06;1647420;86;26759;-76
2021/05/04 02:41:03;;;;;;;14.45;7.53;;;;;;;4.05;78.21;100312.52;1648695;85;25748;-76
2021/05/04 02:43:28;;;;;;;12.23;7.12;;;;;;;4.03;78.08;100310.52;1648247;85;25851;-75
2021/05/04 02:45:55;;;;;;;13.13;7.17;;;;;;;4.04;78.12;100314.77;1647745;85;25916;-76
2021/05/04 02:48:21;;;;;;;15.78;7.58;;;;;;;4.05;78.06;100310.41;1648784;85;25814;-76
2021/05/04 02:50:47;;;;;;;13.13;7.03;;;;;;;4.07;77.98;100309.81;1648430;85;25807;-77
2021/05/04 02:53:13;;;;;;;10.83;6.70;;;;;;;4.09;77.98;100309.20;1648928;85;25975;-76
2021/05/04 02:55:40;;;;;;;12.78;7.42;;;;;;;4.08;77.90;100308.86;1652014;85;25800;-76
2021/05/04 02:58:06;;;;;;;12.13;7.28;;;;;;;4.10;77.85;100308.27;1648489;85;25306;-76
2021/05/04 03:00:33;;;;;;;12.55;6.92;;;;;;;4.09;77.76;100303.58;1649926;85;25905;-77
2021/05/04 03:02:59;;;;;;;10.98;6.87;;;;;;;4.08;77.71;100310.97;1648206;86;25426;-76
2021/05/04 03:05:27;;;;;;;11.83;7.03;;;;;;;4.11;77.77;100299.08;1647742;86;25884;-77
2021/05/04 03:07:53;;;;;;;11.18;7.03;;;;;;;4.14;77.73;100295.42;1648067;86;25969;-77
2021/05/04 03:10:19;;;;;;;12.63;7.07;;;;;;;4.18;77.68;100300.23;1648676;86;25784;-77
2021/05/04 03:12:44;;;;;;;10.47;6.73;;;;;;;4.18;77.60;100295.05;1648484;85;35559;-77
2021/05/04 03:15:11;;;;;;;13.07;7.03;;;;;;;4.18;77.43;100295.53;1649172;85;25827;-76
2021/05/04 03:17:37;;;;;;;13.83;7.30;;;;;;;4.18;77.52;100293.77;1648124;86;25528;-76
2021/05/04 03:20:05;;;;;;;12.33;6.93;;;;;;;4.19;77.43;100298.45;1647269;85;25917;-76
2021/05/04 03:22:31;;;;;;;12.05;6.92;;;;;;;4.19;77.44;100301.86;1648372;86;25904;-76
2021/05/04 03:24:57;;;;;;;13.85;7.05;;;;;;;4.17;77.38;100298.60;1648324;86;25840;-76
2021/05/04 03:27:23;;;;;;;11.35;6.58;;;;;;;4.11;77.24;100305.55;1647744;86;25794;-77
2021/05/04 03:29:49;;;;;;;15.63;7.73;;;;;;;4.06;77.40;100305.57;1648443;85;25907;-76
2021/05/04 03:32:15;;;;;;;12.97;7.50;;;;;;;4.00;77.46;100300.42;1648091;86;25818;-76
2021/05/04 03:34:40;;;;;;;11.23;6.93;;;;;;;3.97;77.62;100304.55;1628874;86;25929;-76
2021/05/04 03:37:06;;;;;;;11.20;7.40;;;;;;;3.95;77.65;100303.84;1648362;85;25809;-76
2021/05/04 03:39:32;;;;;;;16.43;7.50;;;;;;;3.94;77.68;100299.16;1649188;85;25716;-76
2021/05/04 03:41:58;;;;;;;14.37;7.70;;;;;;;3.96;77.83;100301.63;1647871;85;25956;-77
2021/05/04 03:44:24;;;;;;;12.23;7.93;;;;;;;3.96;77.72;100297.75;1648948;85;25744;-77
2021/05/04 03:46:50;;;;;;;13.45;7.97;;;;;;;3.96;77.74;100297.28;1648505;85;25352;-76
2021/05/04 03:49:15;;;;;;;16.03;8.27;;;;;;;3.95;77.84;100301.27;1648112;86;33124;-76
2021/05/04 03:51:41;;;;;;;11.47;7.80;;;;;;;3.96;77.86;100299.86;1647284;86;27356;-76
2021/05/04 03:54:07;;;;;;;12.90;7.83;;;;;;;3.98;77.85;100297.13;1648347;86;25993;-76
2021/05/04 03:56:33;;;;;;;14.33;7.80;;;;;;;4.04;77.87;100295.81;1648347;85;26522;-76
2021/05/04 03:58:58;;;;;;;14.90;8.00;;;;;;;4.07;77.83;100299.47;1648104;85;25805;-76
2021/05/04 04:01:24;;;;;;;14.33;7.63;;;;;;;4.11;77.80;100302.14;1648899;86;27240;-76
2021/05/04 04:03:51;;;;;;;14.37;8.23;;;;;;;4.17;77.85;100299.05;1648301;85;25722;-76
2021/05/04 04:06:17;;;;;;;11.22;7.33;;;;;;;4.26;77.82;100291.03;1648371;86;25756;-76
2021/05/04 04:08:45;;;;;;;11.85;7.25;;;;;;;4.33;77.72;100293.45;1648200;86;25822;-76
2021/05/04 04:11:11;;;;;;;11.85;7.42;;;;;;;4.37;77.60;100289.20;1647882;86;25790;-76
2021/05/04 04:13:37;;;;;;;16.05;7.60;;;;;;;4.44;77.65;100289.02;1648243;85;25765;-76
2021/05/04 04:16:03;;;;;;;12.33;7.50;;;;;;;4.50;77.56;100290.30;1648117;86;25764;-76
2021/05/04 04:18:29;;;;;;;11.80;8.20;;;;;;;4.56;77.54;100286.38;1648320;85;25768;-76
2021/05/04 04:20:55;;;;;;;15.10;8.10;;;;;;;4.64;77.53;100283.97;1648566;85;26158;-76
2021/05/04 04:23:20;;;;;;;13.00;7.70;;;;;;;4.71;77.54;100285.56;1648548;85;25777;-76
2021/05/04 04:25:46;;;;;;;12.97;8.07;;;;;;;4.79;77.46;100282.66;1648473;86;29231;-76
2021/05/04 04:28:12;;;;;;;11.60;7.17;;;;;;;4.86;77.44;100278.62;1648858;86;25750;-76
2021/05/04 04:30:37;;;;;;;14.27;7.97;;;;;;;4.93;77.17;100278.91;1648932;85;25849;-77
2021/05/04 04:33:05;;;;;;;11.43;7.13;;;;;;;4.99;77.20;100277.56;1648999;85;25837;-76
2021/05/04 04:35:31;;;;;;;11.30;6.87;;;;;;;5.05;76.91;100275.77;1647533;85;25958;-76
2021/05/04 04:37:58;;;;;;;12.07;7.80;;;;;;;5.08;76.88;100273.72;1630104;86;37513;-76
2021/05/04 04:40:24;;;;;;;13.73;6.87;;;;;;;5.11;76.72;100273.94;1648044;86;25980;-76
2021/05/04 04:42:49;;;;;;;14.23;7.63;;;;;;;5.17;76.71;100275.98;1648864;85;25741;-76
2021/05/04 04:45:15;;;;;;;12.90;7.70;;;;;;;5.24;76.69;100271.11;1648293;85;25854;-76
2021/05/04 04:47:41;;;;;;;13.73;6.87;;;;;;;5.31;76.69;100276.09;1646700;85;25835;-77
2021/05/04 04:50:08;;;;;;;12.20;7.07;;;;;;;5.39;76.69;100271.55;1648492;85;25808;-76
2021/05/04 04:52:34;;;;;;;11.12;7.00;;;;;;;5.46;76.48;100271.36;1648253;85;25825;-76
2021/05/04 04:55:00;;;;;;;18.03;7.10;;;;;;;5.53;76.53;100270.66;1648897;85;25865;-76
2021/05/04 04:57:26;;;;;;;12.10;6.37;;;;;;;5.63;76.53;100268.58;1648862;85;25724;-76
2021/05/04 04:59:52;;;;;;;10.60;6.10;;;;;;;5.72;76.22;100261.27;1648007;86;25805;-76
2021/05/04 05:02:18;;;;;;;10.37;6.30;;;;;;;5.79;76.25;100260.59;1648399;85;25733;-77
2021/05/04 05:04:45;;;;;;;12.23;6.30;;;;;;;5.89;75.87;100268.39;1648337;86;25821;-76
2021/05/04 05:07:11;;;;;;;12.82;6.62;;;;;;;5.96;75.56;100268.68;1629172;86;26167;-76
2021/05/04 05:09:37;;;;;;;14.83;6.67;;;;;;;6.03;75.20;100271.08;1647426;86;25794;-76
2021/05/04 05:12:05;;;;;;;12.90;6.62;;;;;;;6.12;75.49;100273.31;1648266;86;25889;-76
2021/05/04 05:14:34;;;;;;;8.98;5.97;;;;;;;6.21;75.31;100260.31;1648394;85;25849;-76
2021/05/04 05:17:02;;;;;;;11.50;6.35;;;;;;;6.29;74.12;100263.52;1649202;85;25305;-77
2021/05/04 05:19:28;;;;;;;11.05;6.60;;;;;;;6.36;74.64;100254.22;1647847;86;26567;-77
2021/05/04 05:21:54;;;;;;;10.13;6.60;;;;;;;6.46;74.69;100256.77;1648558;86;25767;-77
2021/05/04 05:24:20;;;;;;;11.90;6.50;;;;;;;6.57;74.77;100255.30;1648767;85;25786;-76
2021/05/04 05:26:46;;;;;;;11.68;6.28;;;;;;;6.69;74.70;100254.67;1648514;85;26610;-77
2021/05/04 05:29:12;;;;;;;14.20;6.08;;;;;;;6.80;74.47;100258.87;1649599;85;25804;-76
2021/05/04 05:31:38;;;;;;;11.37;5.47;;;;;;;6.89;74.31;100253.61;1648820;85;26528;-76
2021/05/04 05:34:04;;;;;;;10.70;5.70;;;;;;;7.00;74.06;100253.09;1648486;85;25751;-76
2021/05/04 05:36:30;;;;;;;9.48;5.70;;;;;;;7.07;73.74;100248.97;1649732;85;25710;-76
2021/05/04 05:38:57;;;;;;;12.20;5.70;;;;;;;7.17;73.91;100247.11;1647528;86;25801;-77
2021/05/04 05:41:24;;;;;;;8.45;5.40;;;;;;;7.27;73.80;100242.68;1647402;86;25897;-76
2021/05/04 05:43:51;;;;;;;9.65;5.17;;;;;;;7.38;73.53;100243.44;1647778;85;25802;-76
2021/05/04 05:46:17;;;;;;;10.47;5.63;;;;;;;7.46;73.31;100238.32;1649498;85;25770;-77
2021/05/04 05:48:43;;;;;;;12.83;5.93;;;;;;;7.56;73.11;100235.98;1649165;85;25882;-77
2021/05/04 05:51:10;;;;;;;9.83;5.83;;;;;;;7.66;72.89;100231.18;1648749;85;25827;-76
2021/05/04 05:53:36;;;;;;;9.38;4.92;;;;;;;7.75;72.82;100235.51;1648547;85;25877;-77
2021/05/04 05:56:03;;;;;;;7.47;4.90;;;;;;;7.86;72.53;100230.55;1648533;85;25744;-76
2021/05/04 05:58:29;;;;;;;10.03;4.75;;;;;;;7.97;72.40;100236.82;1647411;85;25835;-77
2021/05/04 06:00:56;;;;;;;9.00;4.80;;;;;;;8.08;72.28;100231.86;1648415;85;25368;-77
2021/05/04 06:03:23;;;;;;;12.18;6.00;;;;;;;8.18;71.61;100228.19;1649819;85;25866;-76
2021/05/04 06:05:51;;;;;;;8.18;4.70;;;;;;;8.27;71.52;100231.66;1648601;85;25823;-76
2021/05/04 06:08:17;;;;;;;10.90;5.12;;;;;;;8.35;70.90;100226.50;1648291;85;25780;-77
2021/05/04 06:10:43;;;;;;;14.65;5.10;;;;;;;8.43;70.33;100220.56;1648731;85;25879;-76
2021/05/04 06:13:09;;;;;;;9.03;5.20;;;;;;;8.48;69.36;100218.28;1648517;85;26556;-76
2021/05/04 06:15:39;;;;;;;8.48;4.65;;;;;;;8.53;69.37;100219.94;1649838;85;25808;-77
2021/05/04 06:18:05;;;;;;;12.28;4.65;;;;;;;8.62;67.96;100220.79;1647909;85;33123;-76
2021/05/04 06:20:31;;;;;;;9.43;4.45;;;;;;;8.67;67.79;100218.54;1647751;85;26217;-76
2021/05/04 06:22:57;;;;;;;8.58;4.62;;;;;;;8.72;67.39;100214.17;1648671;85;25704;-76
2021/05/04 06:25:23;;;;;;;6.73;4.20;;;;;;;8.78;66.23;100208.33;1647247;85;25804;-76
2021/05/04 06:27:50;;;;;;;6.33;4.35;;;;;;;8.87;67.26;100208.21;1646669;85;25826;-78
2021/05/04 06:30:17;;;;;;;6.47;3.90;;;;;;;8.94;66.32;100203.17;1647843;85;25845;-77
2021/05/04 06:32:44;;;;;;;6.00;3.95;;;;;;;9.03;66.73;100202.24;1648151;85;25802;-80
2021/05/04 06:35:17;;;;;;;6.75;4.17;;;;;;;9.11;66.88;100190.53;1647550;85;26411;-80
2021/05/04 06:37:40;;;;;;;7.97;3.98;;;;;;;9.22;65.99;100192.02;1646250;85;25793;-78
2021/05/04 06:40:08;;;;;;;7.70;3.80;;;;;;;9.30;65.80;100187.28;1648514;85;25780;-78
2021/05/04 06:42:34;;;;;;;8.25;3.83;;;;;;;9.37;65.03;100180.45;1647220;85;25824;-77
2021/05/04 06:45:00;;;;;;;8.30;3.67;;;;;;;9.45;62.46;100175.73;1647513;85;28717;-78
2021/05/04 06:47:26;;;;;;;6.50;3.83;;;;;;;9.54;62.86;100171.65;1647126;85;26310;-75
2021/05/04 06:49:51;;;;;;;7.53;4.30;;;;;;;9.66;64.17;100172.66;1647586;85;25860;-79
2021/05/04 06:52:17;;;;;;;11.77;4.17;;;;;;;9.75;64.43;100169.86;1647959;85;25851;-79
2021/05/04 06:54:44;;;;;;;6.03;3.60;;;;;;;9.87;64.64;100160.38;1647541;85;31162;-79
2021/05/04 06:57:10;;;;;;;8.05;3.98;;;;;;;9.96;64.17;100160.22;1647337;85;25770;-78
2021/05/04 06:59:36;;;;;;;5.63;3.50;;;;;;;10.05;63.28;100157.59;1648275;85;26203;-79
2021/05/04 07:02:02;;;;;;;8.13;4.03;;;;;;;10.08;62.30;100153.34;1647628;85;25667;-78
2021/05/04 07:04:28;;;;;;;8.37;4.10;;;;;;;10.12;59.08;100150.23;1648142;85;25925;-80
2021/05/04 07:06:54;;;;;;;8.07;3.80;;;;;;;10.15;61.27;100145.17;1651705;85;35113;-79
2021/05/04 07:09:20;;;;;;;9.53;3.87;;;;;;;10.25;61.06;100151.00;1647806;85;31715;-78
2021/05/04 07:11:46;;;;;;;5.57;3.50;;;;;;;10.37;61.46;100143.66;1647748;85;25681;-78
2021/05/04 07:14:11;;;;;;;6.53;3.57;;;;;;;10.49;60.59;100136.26;1648836;85;25868;-76
2021/05/04 07:16:39;;;;;;;10.53;4.43;;;;;;;10.58;59.29;100137.84;1647152;84;25924;-80
2021/05/04 07:19:06;;;;;;;10.63;4.20;;;;;;;10.68;60.47;100131.11;1646936;85;25881;-77
2021/05/04 07:21:33;;;;;;;5.70;3.00;;;;;;;10.74;59.40;100127.30;1647344;85;25836;-77
2021/05/04 07:23:59;;;;;;;10.13;3.62;;;;;;;10.85;60.39;100126.10;1647108;85;25821;-75
2021/05/04 07:26:25;;;;;;;5.60;3.40;;;;;;;10.94;60.08;100130.31;1647121;85;27890;-76
2021/05/04 07:28:51;;;;;;;7.28;3.62;;;;;;;11.02;57.08;100114.57;1646880;85;25603;-77
2021/05/04 07:31:17;;;;;;;8.20;4.03;;;;;;;11.09;57.83;100115.48;1647364;85;35327;-77
2021/05/04 07:33:42;;;;;;;6.55;3.60;;;;;;;11.12;54.53;100113.02;1647192;85;30727;-77
2021/05/04 07:36:09;;;;;;;5.77;3.37;;;;;;;11.11;55.53;100115.33;1627769;85;26158;-77
2021/05/04 07:38:35;;;;;;;9.88;3.58;;;;;;;11.13;56.41;100113.83;1646534;85;25435;-78
2021/05/04 07:41:00;;;;;;;6.87;3.00;;;;;;;11.18;57.45;100112.31;1646594;85;25377;-75
2021/05/04 07:43:26;;;;;;;9.58;3.62;;;;;;;11.25;57.29;100103.28;1646145;85;34186;-74
2021/05/04 07:45:52;;;;;;;6.47;3.43;;;;;;;11.32;56.44;100105.50;1646828;85;31798;-76
2021/05/04 07:48:18;;;;;;;5.37;3.00;;;;;;;11.35;52.04;100093.40;1647057;85;26208;-77
2021/05/04 07:50:44;;;;;;;5.58;3.17;;;;;;;11.40;52.58;100094.96;1647586;85;25726;-76
2021/05/04 07:53:10;;;;;;;9.33;3.67;;;;;;;11.42;52.58;100078.59;1645810;85;26328;-76
2021/05/04 07:55:36;;;;;;;5.87;3.30;;;;;;;11.48;53.02;100081.00;1627920;85;34462;-73
2021/05/04 07:58:02;;;;;;;4.35;2.70;;;;;;;11.57;50.51;100078.64;1646293;85;25725;-76
2021/05/04 08:00:28;;;;;;;5.87;3.20;;;;;;;11.64;53.85;100070.38;1645952;85;25818;-73
2021/05/04 08:02:54;;;;;;;5.83;3.43;;;;;;;11.78;53.78;100067.45;1646419;85;28493;-75
2021/05/04 08:05:20;;;;;;;6.07;3.57;;;;;;;11.94;53.66;100066.49;1645703;85;26097;-75
2021/05/04 08:10:12;;;;;;;6.47;3.42;;;;;;;12.11;52.61;100061.40;1842123;76;34036;-72
2021/05/04 08:12:38;;;;;;;7.62;3.77;;;;;;;12.13;53.35;100064.63;1797185;77;33096;-73
2021/05/04 08:15:11;;;;;;;4.83;3.20;;;;;;;12.21;52.57;100057.97;1796512;77;25738;-73
2021/05/04 08:17:36;;;;;;;6.95;3.12;;;;;;;12.32;53.37;100051.95;1795867;77;26216;-76
2021/05/04 08:20:04;;;;;;;7.60;3.17;;;;;;;12.42;51.91;100038.07;1798327;77;25756;-72
2021/05/04 08:22:30;;;;;;;4.60;3.00;;;;;;;12.46;50.32;100045.05;1799575;77;25276;-77
2021/05/04 08:24:59;;;;;;;3.90;2.40;;;;;;;12.41;50.66;100044.28;1797937;77;25777;-72
2021/05/04 08:27:23;;;;;;;6.47;3.10;;;;;;;12.40;49.68;100042.17;1796791;77;26353;-70
2021/05/04 08:29:49;;;;;;;4.27;2.67;;;;;;;12.43;50.26;100042.30;1796180;77;28536;-71
2021/05/04 08:32:15;;;;;;;5.53;2.73;;;;;;;12.50;50.49;100037.15;1797879;77;27728;-72
2021/05/04 08:34:41;;;;;;;6.45;3.17;;;;;;;12.56;47.46;100039.83;1795855;77;35080;-76
2021/05/04 08:37:07;;;;;;;4.30;2.90;;;;;;;12.58;49.17;100039.15;1782177;77;26397;-73
2021/05/04 08:39:33;;;;;;;4.50;2.60;;;;;;;12.65;49.06;100040.02;1795231;77;25702;-74
2021/05/04 08:41:59;;;;;;;4.72;2.70;;;;;;;12.75;49.58;100031.84;1796192;77;26062;-74
2021/05/04 08:44:25;;;;;;;6.83;2.80;;;;;;;12.81;48.27;100026.35;1796735;77;28604;-74
2021/05/04 08:46:52;;;;;;;6.05;3.27;;;;;;;12.81;47.01;100024.53;1749719;77;25792;-73
2021/05/04 08:49:20;;;;;;;6.20;2.60;;;;;;;12.82;48.01;100028.80;1799350;77;26345;-75
2021/05/04 08:51:49;;;;;;;6.42;3.08;;;;;;;12.85;47.12;100023.68;1799425;77;25705;-75
2021/05/04 08:54:17;;;;;;;7.40;4.05;;;;;;;12.88;47.83;100016.74;1798207;77;25344;-76
2021/05/04 08:56:47;;;;;;;5.80;3.05;;;;;;;12.96;47.04;100011.84;1797858;77;25788;-73
2021/05/04 08:59:13;;;;;;;6.70;3.47;;;;;;;12.97;46.30;100009.05;1797316;77;25695;-74
2021/05/04 09:01:43;;;;;;;5.65;2.77;;;;;;;12.98;45.56;99999.36;1775293;78;25310;-74
2021/05/04 09:04:42;;;;;;;6.62;3.40;;;;;;;12.97;45.29;99999.86;1795312;77;25770;-73
2021/05/04 09:07:25;;;;;;;6.72;3.25;;;;;;;12.98;45.79;99996.73;1794535;77;25817;-76
2021/05/04 09:21:14;;;;;;;6.67;3.27;;;;;;;13.29;46.18;99964.91;1795714;77;25746;-74
2021/05/04 09:23:43;;;;;;;8.20;3.58;;;;;;;13.37;47.22;99962.13;1794313;77;25706;-74
2021/05/04 09:26:34;;;;;;;6.95;2.60;;;;;;;13.47;46.09;99957.32;1766096;77;25722;-75
2021/05/04 09:29:07;;;;;;;8.28;2.92;;;;;;;13.53;46.04;99942.60;1798562;77;25870;-74
2021/05/04 09:31:37;;;;;;;5.15;2.67;;;;;;;13.60;46.17;99943.45;1798058;77;25896;-74
2021/05/04 09:34:14;;;;;;;4.78;2.62;;;;;;;13.65;42.31;99939.75;1796931;77;25659;-74
2021/05/04 09:36:49;;;;;;;5.35;2.65;;;;;;;13.68;42.39;99935.41;1796447;77;25593;-75
2021/05/04 09:39:30;;;;;;;4.58;2.77;;;;;;;13.77;44.51;99929.48;1797319;77;26494;-75
2021/05/04 09:42:00;;;;;;;4.95;2.65;;;;;;;13.92;44.70;99930.16;1800077;77;25812;-75
2021/05/04 09:44:47;;;;;;;5.87;2.77;;;;;;;14.02;44.08;99933.70;1768994;77;25680;-74
2021/05/04 09:47:23;;;;;;;5.72;2.90;;;;;;;14.09;42.31;99916.66;1798024;77;26761;-73
2021/05/04 09:49:50;;;;;;;5.22;3.27;;;;;;;14.12;40.42;99910.48;1796641;77;25818;-71
2021/05/04 09:52:43;;;;;;;5.97;3.02;;;;;;;14.07;42.21;99910.78;1798674;77;25959;-73
2021/05/04 09:55:16;;;;;;;10.15;2.83;;;;;;;14.19;43.20;99916.58;1795756;77;25796;-73
2021/05/04 09:57:50;;;;;;;6.85;3.00;;;;;;;14.27;43.20;99898.98;1798709;77;25851;-71
2021/05/04 10:00:23;;;;;;;5.15;3.33;;;;;;;14.46;43.63;99895.58;1770724;77;25645;-74
2021/05/04 10:02:50;;;;;;;7.53;3.52;;;;;;;14.53;41.81;99894.29;1797707;77;25707;-73
2021/05/04 10:05:18;;;;;;;4.92;2.87;;;;;;;14.56;43.36;99884.67;1797657;77;26643;-74
2021/05/04 10:07:47;;;;;;;4.78;2.92;;;;;;;14.57;41.92;99878.42;1797283;77;25726;-74
2021/05/04 10:10:16;;;;;;;5.40;3.02;;;;;;;14.67;43.47;99868.79;1794365;77;26533;-74
2021/05/04 10:12:45;;;;;;;8.43;3.27;;;;;;;14.85;42.94;99875.05;1796798;77;25884;-75
2021/05/04 10:15:14;;;;;;;5.33;2.70;;;;;;;14.99;41.93;99870.56;1797867;77;25787;-74
2021/05/04 10:17:42;;;;;;;5.60;3.15;;;;;;;14.96;42.27;99870.98;1797021;77;26451;-74
2021/05/04 10:20:15;;;;;;;7.20;2.67;;;;;;;14.87;41.32;99853.80;1767754;77;25700;-75
2021/05/04 10:22:42;;;;;;;8.93;2.85;;;;;;;14.77;39.50;99860.78;1770886;78;25929;-74
2021/05/04 10:25:18;;;;;;;5.50;3.33;;;;;;;14.56;39.90;99849.17;1796753;77;25696;-75
2021/05/04 10:27:44;;;;;;;6.42;2.50;;;;;;;14.54;40.82;99848.56;1796024;77;25703;-74
2021/05/04 10:30:14;;;;;;;6.40;3.70;;;;;;;14.54;41.16;99852.02;1798096;77;25701;-75
2021/05/04 10:32:56;;;;;;;7.40;3.52;;;;;;;14.47;40.63;99842.48;1778177;78;26648;-76
2021/05/04 10:35:38;;;;;;;6.80;2.92;;;;;;;14.35;41.96;99840.46;1797353;77;25769;-74
2021/05/04 10:38:14;;;;;;;8.40;3.55;;;;;;;14.35;42.67;99842.26;1794776;77;25877;-75
2021/05/04 10:40:46;;;;;;;6.45;2.98;;;;;;;14.29;41.61;99833.36;1799337;77;25890;-73
2021/05/04 10:43:30;;;;;;;7.55;3.33;;;;;;;14.25;41.23;99828.22;1796336;77;25752;-73
2021/05/04 10:45:58;;;;;;;7.25;3.70;;;;;;;14.30;43.15;99824.48;1798335;77;25934;-74
2021/05/04 10:48:41;;;;;;;10.13;3.55;;;;;;;14.35;42.87;99812.86;1795409;77;25606;-74
2021/05/04 10:51:19;;;;;;;10.08;3.70;;;;;;;14.35;41.92;99819.43;1797784;77;25871;-75
2021/05/04 10:53:53;;;;;;;6.83;3.40;;;;;;;14.31;43.18;99812.94;1797796;77;26456;-74
2021/05/04 10:56:40;;;;;;;10.35;3.37;;;;;;;14.34;43.49;99810.42;1793929;77;25721;-76
2021/05/04 10:59:10;;;;;;;11.70;4.30;;;;;;;14.34;42.58;99807.28;1794839;77;25782;-76
2021/05/04 11:01:36;;;;;;;7.67;3.83;;;;;;;14.32;42.63;99801.92;1797124;77;31294;-75
2021/05/04 11:04:05;;;;;;;7.03;3.22;;;;;;;14.32;42.84;99797.97;1799171;77;25831;-74
2021/05/04 11:06:37;;;;;;;4.42;2.92;;;;;;;14.32;43.15;99789.61;1775149;78;26460;-75
2021/05/04 11:09:09;;;;;;;7.15;3.65;;;;;;;14.35;42.84;99787.88;1795852;77;25743;-75
2021/05/04 11:11:45;;;;;;;7.10;3.20;;;;;;;14.32;41.69;99788.29;1797095;77;25744;-75
2021/05/04 11:14:20;;;;;;;12.75;4.00;;;;;;;14.27;42.75;99782.00;1797332;77;25913;-73
2021/05/04 11:16:56;;;;;;;7.85;3.22;;;;;;;14.28;42.14;99776.55;1797731;77;25742;-72
2021/05/04 11:19:32;;;;;;;4.35;2.67;;;;;;;14.29;43.26;99777.35;1798986;77;25752;-75
2021/05/04 11:22:10;;;;;;;3.95;2.80;;;;;;;14.29;42.65;99764.21;1798376;77;26383;-73
2021/05/04 11:24:50;;;;;;;4.78;2.62;;;;;;;14.36;43.35;99758.45;1794751;77;25653;-74
2021/05/04 11:27:20;;;;;;;5.80;2.47;;;;;;;14.49;41.72;99753.17;1796475;77;26423;-74
2021/05/04 11:32:43;;;;;;;7.50;3.08;;;;;;;14.84;43.09;99740.56;1832844;76;34763;-75
2021/05/04 11:35:10;;;;;;;3.50;2.25;;;;;;;14.92;41.63;99735.55;1798953;78;25653;-76
2021/05/04 11:37:44;;;;;;;5.15;3.10;;;;;;;14.96;42.37;99730.19;1799962;78;25717;-75
2021/05/04 11:40:24;;;;;;;6.67;3.35;;;;;;;14.95;42.78;99717.22;1802136;78;25476;-76
2021/05/04 11:42:57;;;;;;;7.67;3.12;;;;;;;14.95;42.68;99714.11;1778006;78;25843;-77
2021/05/04 11:45:32;;;;;;;13.43;3.00;;;;;;;14.92;43.37;99715.81;1797200;78;25654;-72
2021/05/04 11:48:04;;;;;;;7.10;2.58;;;;;;;14.89;43.51;99705.70;1801228;78;25931;-73